Time;durP1;ratioP1;P1;durP2;ratioP2;P2;SDS_P1;SDS_P2;PMS_P1;PMS_P2;Temp;Humidity;BMP_temperature;BMP_pressure;BME280_temperature;BME280_humidity;BME280_pressure;Samples;Min_cycle;Max_cycle;Signal;HPM_P1;HPM_P2
2023/12/29 00:01:20;;;;;;;82.40;40.25;;;18.20;99.90;;;;;;5047673;28;20053;-69
2023/12/29 00:03:46;;;;;;;72.80;38.10;;;17.70;99.90;;;;;;5047254;28;20098;-69
2023/12/29 00:06:11;;;;;;;87.10;41.63;;;15.90;99.90;;;;;;5034514;28;20411;-69
2023/12/29 00:08:37;;;;;;;79.97;39.15;;;18.00;99.90;;;;;;5044721;28;20041;-69
2023/12/29 00:11:03;;;;;;;83.60;39.67;;;18.10;99.90;;;;;;5047516;28;20143;-69
2023/12/29 00:13:28;;;;;;;80.30;39.63;;;17.80;99.90;;;;;;5047400;28;20099;-69
2023/12/29 00:15:55;;;;;;;79.85;39.55;;;19.00;99.90;;;;;;5045999;28;20085;-69
2023/12/29 00:18:21;;;;;;;79.75;38.80;;;15.90;99.90;;;;;;5030675;28;20665;-69
2023/12/29 00:20:47;;;;;;;81.45;39.35;;;17.50;99.90;;;;;;5047087;28;20163;-69
2023/12/29 00:23:13;;;;;;;73.85;38.22;;;17.40;99.90;;;;;;5046618;28;20037;-68
2023/12/29 00:25:39;;;;;;;69.80;37.55;;;18.10;99.90;;;;;;5047472;28;20633;-69
2023/12/29 00:28:05;;;;;;;76.38;38.33;;;16.00;99.90;;;;;;5047318;28;20076;-69
2023/12/29 00:30:31;;;;;;;69.80;37.60;;;16.90;99.90;;;;;;5045789;28;20044;-69
2023/12/29 00:32:56;;;;;;;64.40;36.67;;;15.60;99.90;;;;;;5034904;28;20033;-69
2023/12/29 00:35:22;;;;;;;74.03;39.55;;;16.10;99.90;;;;;;5033935;28;20097;-68
2023/12/29 00:37:49;;;;;;;68.22;38.25;;;17.60;99.90;;;;;;5047232;28;20049;-68
2023/12/29 00:40:15;;;;;;;71.72;40.15;;;15.40;99.90;;;;;;5045971;28;20578;-69
2023/12/29 00:42:41;;;;;;;66.00;38.83;;;15.70;99.90;;;;;;5047277;28;20041;-69
2023/12/29 00:45:07;;;;;;;67.32;40.83;;;16.10;99.90;;;;;;5045878;28;20460;-68
2023/12/29 00:47:33;;;;;;;67.82;39.97;;;15.30;99.90;;;;;;5046318;28;20049;-69
2023/12/29 00:49:58;;;;;;;81.07;40.50;;;17.10;99.90;;;;;;5039979;28;20044;-69
2023/12/29 00:52:24;;;;;;;66.25;40.67;;;15.30;99.90;;;;;;5027590;28;20487;-69
2023/12/29 00:54:50;;;;;;;76.57;42.25;;;15.80;99.90;;;;;;5026724;28;20339;-69
2023/12/29 00:57:15;;;;;;;77.35;41.65;;;16.50;99.90;;;;;;5039145;28;20083;-69
2023/12/29 00:59:41;;;;;;;68.78;39.55;;;15.00;99.90;;;;;;5046153;28;20124;-69
2023/12/29 01:02:07;;;;;;;72.30;41.92;;;16.70;99.90;;;;;;5040894;28;20418;-68
2023/12/29 01:04:33;;;;;;;65.28;39.20;;;15.20;99.90;;;;;;5020506;28;20133;-69
2023/12/29 01:06:59;;;;;;;72.38;40.38;;;15.30;99.90;;;;;;5010588;28;20041;-68
2023/12/29 01:09:26;;;;;;;71.32;40.92;;;15.10;99.90;;;;;;5041640;28;20045;-69
2023/12/29 01:11:51;;;;;;;87.20;43.03;;;17.00;99.90;;;;;;5044521;28;20124;-68
2023/12/29 01:14:17;;;;;;;78.90;41.55;;;15.40;99.90;;;;;;5046171;28;20574;-68
2023/12/29 01:16:43;;;;;;;77.85;41.53;;;16.80;99.90;;;;;;5042357;28;20102;-68
2023/12/29 01:19:08;;;;;;;75.82;40.25;;;16.10;99.90;;;;;;5045797;28;20571;-68
2023/12/29 01:21:37;;;;;;;88.22;42.67;;;15.30;99.90;;;;;;5046136;28;20506;-68
2023/12/29 01:24:07;;;;;;;79.68;42.40;;;16.90;99.90;;;;;;5046096;28;20029;-68
2023/12/29 01:26:37;;;;;;;80.68;42.88;;;16.50;99.90;;;;;;5046263;28;20120;-68
2023/12/29 01:29:04;;;;;;;89.18;44.13;;;16.90;99.90;;;;;;5046336;28;20551;-69
2023/12/29 01:31:32;;;;;;;74.07;41.20;;;15.20;99.90;;;;;;5045886;28;20474;-69
2023/12/29 01:33:58;;;;;;;89.53;42.38;;;15.30;99.90;;;;;;5042300;28;20061;-68
2023/12/29 01:36:24;;;;;;;65.80;39.78;;;15.40;99.90;;;;;;5043003;28;20055;-68
2023/12/29 01:38:49;;;;;;;74.25;40.15;;;15.10;99.90;;;;;;5029452;28;20499;-69
2023/12/29 01:41:15;;;;;;;69.25;40.80;;;17.00;99.90;;;;;;5026336;28;20045;-68
2023/12/29 01:43:56;;;;;;;67.32;39.90;;;15.60;99.90;;;;;;5010877;28;20033;-68
2023/12/29 01:46:22;;;;;;;73.20;41.90;;;16.30;99.90;;;;;;5027871;28;20041;-68
2023/12/29 01:48:48;;;;;;;68.35;40.55;;;17.10;99.90;;;;;;5026608;28;20045;-68
2023/12/29 01:51:15;;;;;;;61.22;38.67;;;15.80;99.90;;;;;;5033476;28;20045;-69
2023/12/29 01:53:41;;;;;;;75.45;38.10;;;16.40;99.90;;;;;;5044757;28;20045;-68
2023/12/29 01:56:07;;;;;;;73.97;37.03;;;17.10;99.90;;;;;;5033950;28;20082;-68
2023/12/29 01:58:33;;;;;;;67.00;36.67;;;17.30;99.90;;;;;;5028530;28;20242;-67
2023/12/29 02:01:01;;;;;;;68.68;36.95;;;15.60;99.90;;;;;;5045806;28;20152;-68
2023/12/29 02:03:27;;;;;;;66.93;36.85;;;17.00;99.90;;;;;;5045476;28;20033;-68
2023/12/29 02:05:54;;;;;;;65.18;36.47;;;17.00;99.90;;;;;;5038240;28;20044;-69
2023/12/29 02:08:24;;;;;;;66.43;37.15;;;16.40;99.90;;;;;;5025534;28;20046;-68
2023/12/29 02:10:49;;;;;;;71.32;37.17;;;15.70;99.90;;;;;;5025506;28;20055;-68
2023/12/29 02:13:15;;;;;;;75.85;37.70;;;15.90;99.90;;;;;;5036671;28;20041;-68
2023/12/29 02:15:41;;;;;;;72.75;38.65;;;16.60;99.90;;;;;;5019834;28;20550;-68
2023/12/29 02:18:14;;;;;;;77.97;38.97;;;17.10;99.90;;;;;;5026810;28;20409;-68
2023/12/29 02:20:41;;;;;;;68.82;39.90;;;17.10;99.90;;;;;;5029775;28;20047;-67
2023/12/29 02:23:06;;;;;;;79.15;40.00;;;17.30;99.90;;;;;;5045175;28;20044;-68
2023/12/29 02:25:32;;;;;;;73.10;40.17;;;16.30;99.90;;;;;;5028785;28;20522;-68
2023/12/29 02:28:19;;;;;;;82.85;41.65;;;16.10;99.90;;;;;;5040092;28;20073;-69
2023/12/29 02:31:00;;;;;;;76.60;39.80;;;16.00;99.90;;;;;;5045870;28;20045;-68
2023/12/29 02:33:27;;;;;;;73.97;39.08;;;15.80;99.90;;;;;;5033701;28;20049;-67
2023/12/29 02:35:59;;;;;;;77.53;38.35;;;16.10;99.90;;;;;;5039607;28;20203;-69
2023/12/29 02:38:27;;;;;;;67.32;37.63;;;16.20;99.90;;;;;;5040800;28;20478;-69
2023/12/29 02:40:55;;;;;;;75.00;38.30;;;16.50;99.90;;;;;;5039429;28;20051;-68
2023/12/29 02:43:20;;;;;;;70.88;37.08;;;16.70;99.90;;;;;;5033371;28;20510;-67
2023/12/29 02:45:46;;;;;;;75.65;38.50;;;16.00;99.90;;;;;;5008600;28;20068;-68
2023/12/29 02:48:11;;;;;;;71.95;37.53;;;16.10;99.90;;;;;;5025946;28;20033;-68
2023/12/29 02:50:37;;;;;;;71.80;38.30;;;16.50;99.90;;;;;;5008548;28;20053;-68
2023/12/29 02:53:04;;;;;;;72.88;35.60;;;17.10;99.90;;;;;;5041052;28;20652;-67
2023/12/29 02:55:29;;;;;;;76.60;37.83;;;17.20;99.90;;;;;;5010966;28;20597;-69
2023/12/29 02:57:55;;;;;;;72.50;37.17;;;17.30;99.90;;;;;;5034173;28;20088;-69
2023/12/29 03:00:20;;;;;;;63.63;36.60;;;16.00;99.90;;;;;;5025038;28;20392;-68
2023/12/29 03:02:46;;;;;;;71.10;37.70;;;16.60;99.90;;;;;;5025417;28;20049;-67
2023/12/29 03:05:12;;;;;;;71.05;35.90;;;17.60;99.90;;;;;;5037079;28;20044;-69
2023/12/29 03:07:37;;;;;;;69.97;35.50;;;16.80;99.90;;;;;;5044518;28;20041;-68
2023/12/29 03:10:03;;;;;;;56.47;32.10;;;16.20;99.90;;;;;;5032175;28;20487;-69
2023/12/29 03:12:30;;;;;;;65.18;35.13;;;16.40;99.90;;;;;;5024932;28;20045;-67
2023/12/29 03:14:56;;;;;;;63.25;32.42;;;16.40;99.90;;;;;;5027546;28;20064;-68
2023/12/29 03:17:21;;;;;;;60.53;32.42;;;15.80;99.90;;;;;;5045961;28;20037;-69
2023/12/29 03:19:47;;;;;;;59.78;32.83;;;16.40;99.90;;;;;;5020162;28;20518;-67
2023/12/29 03:22:12;;;;;;;58.90;31.88;;;15.60;99.90;;;;;;5028360;28;20479;-68
2023/12/29 03:24:40;;;;;;;57.30;30.35;;;15.70;99.90;;;;;;5042978;28;20041;-68
2023/12/29 03:27:06;;;;;;;61.95;34.00;;;16.80;99.90;;;;;;5047712;28;20041;-68
2023/12/29 03:29:32;;;;;;;60.10;33.45;;;16.80;99.90;;;;;;5046621;28;20165;-68
2023/12/29 03:31:57;;;;;;;62.53;33.72;;;16.10;99.90;;;;;;5048650;28;20049;-68
2023/12/29 03:34:23;;;;;;;65.45;34.90;;;15.90;99.90;;;;;;5039680;28;20045;-68
2023/12/29 03:36:48;;;;;;;61.70;32.30;;;15.50;99.90;;;;;;5048328;28;20083;-67
2023/12/29 03:39:14;;;;;;;61.72;35.47;;;15.80;99.90;;;;;;5042862;28;20052;-68
2023/12/29 03:41:39;;;;;;;63.90;34.10;;;16.30;99.90;;;;;;5048006;28;20509;-68
2023/12/29 03:44:06;;;;;;;64.07;32.70;;;16.00;99.90;;;;;;5031702;28;20040;-68
2023/12/29 03:46:32;;;;;;;71.80;35.38;;;15.90;99.90;;;;;;5047909;28;20491;-69
2023/12/29 03:48:58;;;;;;;68.05;34.08;;;15.50;99.90;;;;;;5047213;28;20045;-67
2023/12/29 03:51:24;;;;;;;62.17;36.35;;;16.50;99.90;;;;;;5047125;28;20041;-68
2023/12/29 03:53:50;;;;;;;71.03;36.17;;;16.60;99.90;;;;;;5047791;28;20463;-69
2023/12/29 03:56:17;;;;;;;64.40;33.33;;;15.90;99.90;;;;;;5047623;28;20041;-68
2023/12/29 03:58:44;;;;;;;67.90;35.72;;;15.30;99.90;;;;;;5047859;28;20399;-68
2023/12/29 04:01:14;;;;;;;66.53;35.80;;;15.40;99.90;;;;;;5041534;28;20125;-68
2023/12/29 04:03:40;;;;;;;68.70;34.97;;;16.30;99.90;;;;;;5047028;28;20044;-68
2023/12/29 04:06:06;;;;;;;71.80;37.63;;;15.50;99.90;;;;;;5045468;28;20415;-68
2023/12/29 04:08:36;;;;;;;66.15;36.60;;;15.40;99.90;;;;;;5033587;28;20693;-68
2023/12/29 04:11:03;;;;;;;71.55;35.35;;;15.20;93.50;;;;;;5027764;28;20045;-68
2023/12/29 04:13:29;;;;;;;69.28;35.92;;;15.60;57.20;;;;;;5033737;28;20102;-68
2023/12/29 04:15:54;;;;;;;61.08;31.55;;;15.30;80.40;;;;;;5038337;28;20045;-67
2023/12/29 04:18:22;;;;;;;66.22;35.58;;;16.00;23.70;;;;;;5040469;28;20047;-68
2023/12/29 04:20:48;;;;;;;58.42;33.60;;;15.90;3.00;;;;;;5046597;28;20194;-68
2023/12/29 04:23:14;;;;;;;69.63;33.40;;;15.80;1.00;;;;;;5043051;28;20895;-68
2023/12/29 04:25:40;;;;;;;65.25;33.55;;;16.10;4.50;;;;;;5027509;28;20502;-69
2023/12/29 04:28:07;;;;;;;60.13;34.08;;;15.90;1.00;;;;;;5036639;28;20048;-68
2023/12/29 04:30:33;;;;;;;62.20;31.77;;;15.20;1.00;;;;;;5047222;28;20061;-68
2023/12/29 04:32:59;;;;;;;61.50;31.95;;;16.10;1.00;;;;;;5047719;28;20497;-68
2023/12/29 04:35:24;;;;;;;69.85;34.22;;;16.60;99.90;;;;;;5030764;28;20451;-68
2023/12/29 04:37:50;;;;;;;61.70;33.95;;;15.10;99.90;;;;;;5038638;28;20349;-67
2023/12/29 04:40:17;;;;;;;64.15;35.40;;;15.30;99.90;;;;;;5020976;28;20103;-67
2023/12/29 04:42:42;;;;;;;71.28;35.72;;;15.80;99.90;;;;;;5027338;28;20049;-68
2023/12/29 04:45:08;;;;;;;75.35;36.65;;;15.50;1.00;;;;;;5027797;28;20052;-68
2023/12/29 04:47:33;;;;;;;76.00;35.10;;;16.70;99.90;;;;;;5026912;28;20064;-68
2023/12/29 04:49:59;;;;;;;61.78;33.33;;;16.60;99.90;;;;;;5036027;28;20123;-69
2023/12/29 04:52:24;;;;;;;66.53;35.53;;;16.30;99.90;;;;;;5042244;28;20495;-69
2023/12/29 04:54:50;;;;;;;66.35;35.97;;;15.80;99.90;;;;;;5046368;28;20056;-68
2023/12/29 04:57:16;;;;;;;70.90;37.10;;;16.60;99.90;;;;;;5046663;28;20041;-69
2023/12/29 04:59:41;;;;;;;73.20;36.50;;;16.00;39.50;;;;;;5043915;28;20827;-69
2023/12/29 05:02:07;;;;;;;70.05;36.97;;;16.50;1.00;;;;;;5046852;28;20064;-69
2023/12/29 05:04:32;;;;;;;74.90;36.92;;;16.30;1.00;;;;;;5038084;28;20466;-69
2023/12/29 05:06:58;;;;;;;69.53;34.70;;;16.60;1.00;;;;;;5033196;28;20415;-70
2023/12/29 05:09:24;;;;;;;64.93;34.50;;;16.60;1.00;;;;;;5026623;28;20091;-69
2023/12/29 05:11:49;;;;;;;71.03;35.60;;;15.40;1.00;;;;;;5026677;28;20045;-69
2023/12/29 05:14:15;;;;;;;74.28;38.72;;;16.20;99.90;;;;;;5033977;28;20071;-68
2023/12/29 05:16:42;;;;;;;73.60;39.13;;;15.50;1.00;;;;;;5038208;28;20045;-69
2023/12/29 05:19:07;;;;;;;80.75;36.60;;;16.10;1.00;;;;;;5028216;28;20594;-69
2023/12/29 05:21:33;;;;;;;64.72;36.35;;;16.30;1.00;;;;;;5026597;28;20048;-68
2023/12/29 05:23:59;;;;;;;69.03;36.22;;;16.10;1.00;;;;;;5027045;28;20069;-68
2023/12/29 05:26:25;;;;;;;74.97;38.30;;;15.20;43.60;;;;;;5059177;28;20095;-68
2023/12/29 05:28:50;;;;;;;72.32;39.42;;;15.10;99.90;;;;;;5031313;28;20038;-68
2023/12/29 05:31:16;;;;;;;77.97;38.92;;;15.70;99.90;;;;;;5026240;28;20045;-68
2023/12/29 05:33:42;;;;;;;82.65;41.85;;;16.50;99.90;;;;;;5026816;28;20408;-69
2023/12/29 05:36:09;;;;;;;75.82;40.53;;;15.80;99.90;;;;;;5029362;28;20506;-68
2023/12/29 05:38:35;;;;;;;75.95;38.92;;;15.60;99.90;;;;;;5044860;28;20084;-68
2023/12/29 05:41:04;;;;;;;77.68;39.72;;;17.00;99.90;;;;;;5035936;28;20047;-69
2023/12/29 05:43:32;;;;;;;75.35;39.40;;;15.70;99.90;;;;;;5034120;28;20487;-69
2023/12/29 05:45:58;;;;;;;73.97;38.80;;;16.80;99.90;;;;;;5025392;28;20091;-69
2023/12/29 05:48:24;;;;;;;79.65;39.88;;;16.00;99.90;;;;;;5024865;28;20085;-68
2023/12/29 05:50:50;;;;;;;79.75;40.30;;;16.30;99.90;;;;;;5025584;28;20084;-68
2023/12/29 05:53:16;;;;;;;77.18;38.88;;;16.60;99.90;;;;;;5034826;28;20040;-68
2023/12/29 05:55:41;;;;;;;76.40;38.70;;;16.30;99.90;;;;;;5044254;28;20503;-69
2023/12/29 05:58:07;;;;;;;75.10;39.65;;;16.30;99.90;;;;;;5044421;28;20055;-68
2023/12/29 06:00:32;;;;;;;79.50;39.15;;;16.20;99.90;;;;;;5033017;28;20456;-68
2023/12/29 06:02:59;;;;;;;61.15;36.83;;;15.30;99.90;;;;;;5044805;28;20106;-69
2023/12/29 06:05:24;;;;;;;77.00;41.08;;;15.50;99.90;;;;;;5030929;28;20137;-68
2023/12/29 06:07:50;;;;;;;70.60;35.08;;;16.00;99.90;;;;;;5024219;28;20037;-69
2023/12/29 06:10:16;;;;;;;71.05;38.38;;;15.40;99.90;;;;;;5034845;28;20040;-69
2023/12/29 06:12:41;;;;;;;73.60;37.50;;;16.30;99.90;;;;;;5036515;28;20112;-68
2023/12/29 06:15:07;;;;;;;69.63;38.92;;;15.60;99.90;;;;;;5034290;28;20085;-69
2023/12/29 06:17:35;;;;;;;85.82;40.05;;;16.30;99.90;;;;;;5027694;28;20051;-68
2023/12/29 06:20:02;;;;;;;75.15;40.78;;;16.30;99.90;;;;;;5032143;28;20116;-70
2023/12/29 06:22:27;;;;;;;84.07;41.65;;;16.20;99.90;;;;;;5043813;28;20049;-67
2023/12/29 06:24:53;;;;;;;83.90;41.00;;;16.10;99.90;;;;;;5042934;28;20146;-68
2023/12/29 06:27:18;;;;;;;85.90;39.63;;;15.90;99.90;;;;;;5036587;28;20025;-68
2023/12/29 06:29:47;;;;;;;78.35;38.72;;;16.80;99.90;;;;;;5041331;28;20057;-69
2023/12/29 06:32:12;;;;;;;77.05;38.38;;;16.20;99.90;;;;;;5027917;28;20740;-68
2023/12/29 06:34:38;;;;;;;74.03;36.97;;;16.80;99.90;;;;;;5011356;28;20044;-68
2023/12/29 06:37:04;;;;;;;76.43;40.15;;;16.30;99.90;;;;;;5044050;28;20084;-68
2023/12/29 06:39:32;;;;;;;79.50;41.15;;;16.20;99.90;;;;;;5045296;28;20383;-68
2023/12/29 06:41:58;;;;;;;77.25;40.42;;;16.60;99.90;;;;;;5009957;28;20057;-68
2023/12/29 06:44:23;;;;;;;79.50;40.20;;;15.70;99.90;;;;;;5034704;28;20487;-68
2023/12/29 06:46:49;;;;;;;82.78;42.65;;;15.30;99.90;;;;;;5044725;28;20402;-68
2023/12/29 06:49:14;;;;;;;82.32;40.97;;;16.70;99.90;;;;;;5038620;28;20044;-68
2023/12/29 06:51:40;;;;;;;84.25;40.42;;;15.90;99.90;;;;;;5024057;28;20793;-68
2023/12/29 06:54:07;;;;;;;78.65;39.92;;;16.30;99.90;;;;;;5029743;28;20084;-69
2023/12/29 06:56:32;;;;;;;78.18;40.53;;;16.60;99.90;;;;;;5041123;28;20052;-67
2023/12/29 06:58:58;;;;;;;72.75;39.92;;;16.80;99.90;;;;;;5041593;28;20514;-68
2023/12/29 07:01:24;;;;;;;81.50;39.25;;;16.60;99.90;;;;;;5043464;28;20064;-68
2023/12/29 07:03:50;;;;;;;67.25;38.88;;;15.70;99.90;;;;;;5009627;28;20068;-68
2023/12/29 07:06:16;;;;;;;89.13;40.25;;;16.80;99.90;;;;;;5032645;28;20053;-68
2023/12/29 07:08:42;;;;;;;74.47;38.78;;;16.60;99.90;;;;;;5039642;28;20048;-68
2023/12/29 07:11:11;;;;;;;82.30;38.00;;;16.10;99.90;;;;;;5039756;28;20040;-69
2023/12/29 07:13:37;;;;;;;65.22;34.55;;;16.90;99.90;;;;;;5042354;28;20422;-69
2023/12/29 07:16:03;;;;;;;72.72;37.55;;;15.70;99.90;;;;;;5018583;28;20040;-69
2023/12/29 07:18:29;;;;;;;72.65;38.60;;;16.90;99.90;;;;;;5036892;28;20055;-68
2023/12/29 07:20:54;;;;;;;69.60;35.65;;;16.30;99.90;;;;;;5036581;28;20707;-69
2023/12/29 07:23:20;;;;;;;71.95;38.50;;;15.50;99.90;;;;;;5037686;28;20568;-69
2023/12/29 07:25:47;;;;;;;68.80;38.45;;;15.40;99.90;;;;;;5033554;28;20095;-68
2023/12/29 07:28:12;;;;;;;70.88;37.25;;;16.70;99.90;;;;;;5032595;28;20051;-69
2023/12/29 07:30:38;;;;;;;71.82;38.53;;;16.10;99.90;;;;;;5036374;28;20506;-69
2023/12/29 07:33:04;;;;;;;65.63;37.72;;;15.10;99.90;;;;;;5036539;28;20045;-69
2023/12/29 07:35:29;;;;;;;66.07;38.30;;;15.20;99.90;;;;;;5035622;28;20045;-70
2023/12/29 07:37:55;;;;;;;67.97;37.33;;;15.30;99.90;;;;;;5039465;28;20041;-68
2023/12/29 07:40:21;;;;;;;69.72;36.17;;;15.60;99.90;;;;;;5034757;28;20048;-69
2023/12/29 07:42:46;;;;;;;71.60;34.95;;;16.50;99.90;;;;;;5034364;28;20582;-68
2023/12/29 07:45:12;;;;;;;62.47;33.63;;;15.80;99.90;;;;;;5039451;28;20037;-69
2023/12/29 07:47:38;;;;;;;64.97;34.30;;;15.70;99.90;;;;;;5036441;28;20792;-69
2023/12/29 07:50:05;;;;;;;56.95;33.83;;;15.90;99.90;;;;;;5039522;28;20494;-69
2023/12/29 07:52:30;;;;;;;60.60;32.65;;;16.00;99.90;;;;;;5034234;28;20049;-69
2023/12/29 07:54:56;;;;;;;51.47;33.33;;;16.70;99.90;;;;;;5036749;28;20045;-68
2023/12/29 07:57:22;;;;;;;53.25;33.75;;;16.50;99.90;;;;;;5037708;28;20521;-70
2023/12/29 07:59:48;;;;;;;64.30;36.78;;;15.50;99.90;;;;;;5040423;28;20408;-69
2023/12/29 08:02:13;;;;;;;57.03;34.65;;;16.20;99.90;;;;;;5039481;28;20088;-69
2023/12/29 08:04:39;;;;;;;60.72;33.50;;;15.80;99.90;;;;;;5042623;28;20171;-68
2023/12/29 08:07:04;;;;;;;65.78;35.92;;;16.20;99.90;;;;;;5023991;28;20214;-69
2023/12/29 08:09:30;;;;;;;63.97;34.22;;;17.60;99.90;;;;;;5041066;28;20033;-70
2023/12/29 08:11:55;;;;;;;69.40;37.00;;;16.60;99.90;;;;;;5041886;28;20040;-72
2023/12/29 08:14:22;;;;;;;71.28;36.88;;;16.00;99.90;;;;;;5022111;28;20049;-70
2023/12/29 08:16:47;;;;;;;62.28;34.72;;;16.90;99.90;;;;;;5041947;28;20080;-70
2023/12/29 08:19:15;;;;;;;70.85;37.38;;;15.60;99.90;;;;;;5037342;28;20596;-71
2023/12/29 08:21:40;;;;;;;58.97;35.38;;;15.50;99.90;;;;;;5025779;28;20045;-70
2023/12/29 08:24:06;;;;;;;61.50;34.20;;;15.30;99.90;;;;;;5040082;28;20045;-70
2023/12/29 08:26:32;;;;;;;57.95;36.60;;;16.40;99.90;;;;;;5021455;28;20756;-70
2023/12/29 08:28:58;;;;;;;58.40;33.60;;;16.90;99.90;;;;;;5039842;28;20066;-70
2023/12/29 08:31:23;;;;;;;58.50;34.40;;;16.70;99.90;;;;;;5040272;28;20448;-71
2023/12/29 08:33:49;;;;;;;67.40;36.25;;;15.80;99.90;;;;;;5038938;28;20057;-70
2023/12/29 08:36:18;;;;;;;68.03;37.45;;;15.80;99.90;;;;;;5036867;28;20046;-72
2023/12/29 08:38:43;;;;;;;66.85;36.72;;;16.90;99.90;;;;;;5019945;28;20045;-71
2023/12/29 08:41:09;;;;;;;62.63;37.53;;;16.20;99.90;;;;;;5037698;28;20045;-71
2023/12/29 08:43:36;;;;;;;65.63;38.55;;;15.50;99.90;;;;;;5042184;28;20119;-70
2023/12/29 08:46:01;;;;;;;67.22;39.92;;;15.50;99.90;;;;;;5043974;28;20041;-70
2023/12/29 08:48:27;;;;;;;77.85;40.92;;;16.50;99.90;;;;;;5041159;28;20143;-71
2023/12/29 08:50:53;;;;;;;68.45;37.00;;;15.80;99.90;;;;;;5027012;28;20044;-71
2023/12/29 08:53:18;;;;;;;68.50;36.55;;;17.00;99.90;;;;;;5039480;28;20044;-70
2023/12/29 08:55:44;;;;;;;72.53;38.50;;;16.70;99.90;;;;;;5045024;28;20101;-70
2023/12/29 08:58:10;;;;;;;78.07;38.92;;;17.70;99.90;;;;;;5024360;28;20048;-69
2023/12/29 09:00:35;;;;;;;68.10;37.38;;;17.30;99.90;;;;;;5040062;28;20049;-69
2023/12/29 09:03:01;;;;;;;67.00;36.63;;;15.80;99.90;;;;;;5037135;28;20072;-68
2023/12/29 09:05:27;;;;;;;74.07;37.95;;;15.60;99.90;;;;;;5024214;28;20450;-72
2023/12/29 09:07:52;;;;;;;71.60;37.53;;;15.40;99.90;;;;;;5041908;28;20526;-70
2023/12/29 09:10:18;;;;;;;67.15;37.95;;;15.40;99.90;;;;;;5044451;28;20060;-69
2023/12/29 09:12:43;;;;;;;64.93;36.45;;;16.60;99.90;;;;;;5040567;28;20063;-65
2023/12/29 09:15:09;;;;;;;71.47;36.53;;;15.70;99.90;;;;;;5037449;28;20041;-68
2023/12/29 09:17:35;;;;;;;66.38;35.80;;;16.50;99.90;;;;;;5043439;28;20388;-66
2023/12/29 09:20:03;;;;;;;61.75;35.83;;;17.30;99.90;;;;;;5037607;28;20052;-69
2023/12/29 09:22:28;;;;;;;65.82;34.15;;;16.70;99.90;;;;;;5039055;28;20049;-67
2023/12/29 09:24:55;;;;;;;61.00;32.45;;;16.50;99.90;;;;;;5039104;28;20052;-67
2023/12/29 09:27:21;;;;;;;70.20;35.75;;;16.90;99.90;;;;;;5034743;28;20053;-68
2023/12/29 09:29:46;;;;;;;73.60;35.80;;;15.60;99.90;;;;;;5038524;28;20047;-67
2023/12/29 09:32:12;;;;;;;72.20;35.10;;;15.70;99.90;;;;;;5037990;28;20133;-67
2023/12/29 09:34:38;;;;;;;69.60;34.75;;;17.10;99.90;;;;;;5041534;28;20045;-68
2023/12/29 09:37:04;;;;;;;59.60;34.42;;;16.90;99.90;;;;;;5034052;28;20106;-66
2023/12/29 09:39:29;;;;;;;58.97;33.63;;;15.80;99.90;;;;;;5041510;28;20111;-67
2023/12/29 09:42:02;;;;;;;55.53;32.13;;;16.30;99.90;;;;;;5039804;28;20041;-67
2023/12/29 09:44:28;;;;;;;71.65;34.13;;;16.10;99.90;;;;;;5040301;28;20041;-67
2023/12/29 09:46:54;;;;;;;64.45;35.05;;;17.10;99.90;;;;;;5039616;28;20102;-66
2023/12/29 09:49:20;;;;;;;59.63;32.88;;;16.80;99.90;;;;;;5037543;28;20041;-67
2023/12/29 09:51:48;;;;;;;62.58;31.70;;;16.80;99.90;;;;;;5035047;28;20079;-66
2023/12/29 09:54:15;;;;;;;53.45;30.65;;;16.90;99.90;;;;;;5039474;28;20051;-67
2023/12/29 09:56:41;;;;;;;47.50;26.95;;;16.00;99.90;;;;;;5020797;28;20075;-66
2023/12/29 09:59:09;;;;;;;39.88;25.83;;;16.00;99.90;;;;;;5023457;28;20045;-65
2023/12/29 10:01:37;;;;;;;51.17;26.83;;;16.70;99.90;;;;;;5035625;28;20068;-66
2023/12/29 10:04:03;;;;;;;41.72;25.80;;;16.70;1.00;;;;;;5043599;28;20412;-66
2023/12/29 10:06:34;;;;;;;42.50;26.58;;;15.90;99.90;;;;;;5039734;28;20048;-65
2023/12/29 10:09:04;;;;;;;52.80;25.60;;;16.10;1.00;;;;;;5035217;28;20069;-65
2023/12/29 10:11:32;;;;;;;44.28;26.67;;;16.30;99.90;;;;;;5032492;28;20410;-67
2023/12/29 10:14:02;;;;;;;44.35;24.65;;;15.90;75.70;;;;;;5038866;28;20399;-64
2023/12/29 10:16:42;;;;;;;42.72;24.67;;;16.20;99.90;;;;;;5036564;28;20041;-67
2023/12/29 10:19:21;;;;;;;37.95;22.15;;;16.70;99.90;;;;;;5037697;28;20694;-66
2023/12/29 10:22:03;;;;;;;39.40;22.55;;;16.20;99.90;;;;;;5036572;28;20111;-67
2023/12/29 10:24:29;;;;;;;38.22;22.15;;;16.40;1.00;;;;;;5023599;28;20033;-66
2023/12/29 10:26:55;;;;;;;36.83;22.08;;;15.80;50.80;;;;;;5039430;28;20420;-67
2023/12/29 10:29:21;;;;;;;36.70;22.08;;;16.40;1.00;;;;;;5039616;28;20071;-68
2023/12/29 10:31:47;;;;;;;28.83;22.02;;;16.00;1.00;;;;;;5043595;28;20099;-65
2023/12/29 10:34:28;;;;;;;42.47;22.70;;;15.70;99.90;;;;;;5042023;28;20103;-67
2023/12/29 10:36:54;;;;;;;37.25;22.50;;;15.80;99.90;;;;;;5033858;28;20037;-68
2023/12/29 10:39:20;;;;;;;37.53;22.20;;;15.80;99.90;;;;;;5037330;28;20036;-66
2023/12/29 10:41:46;;;;;;;42.03;23.58;;;16.30;1.00;;;;;;5039227;28;20052;-66
2023/12/29 10:44:11;;;;;;;41.33;24.10;;;16.00;1.00;;;;;;5038937;28;20037;-65
2023/12/29 10:46:37;;;;;;;38.67;24.65;;;16.40;1.00;;;;;;5033376;28;20095;-66
2023/12/29 10:49:10;;;;;;;39.30;25.00;;;16.00;38.00;;;;;;5039235;28;20045;-65
2023/12/29 10:51:39;;;;;;;36.72;24.35;;;15.70;24.80;;;;;;5037818;28;20084;-66
2023/12/29 10:54:06;;;;;;;34.45;24.52;;;16.90;92.50;;;;;;5032605;28;20041;-66
2023/12/29 10:57:06;;;;;;;35.60;24.38;;;15.80;99.90;;;;;;5036233;28;20391;-66
2023/12/29 10:59:31;;;;;;;43.95;23.95;;;16.00;99.90;;;;;;5036277;28;20045;-65
2023/12/29 11:02:02;;;;;;;42.42;24.27;;;16.60;1.00;;;;;;5021455;28;20126;-65
2023/12/29 11:04:28;;;;;;;46.38;26.67;;;15.90;1.00;;;;;;5040493;28;20052;-67
2023/12/29 11:06:54;;;;;;;41.67;25.42;;;15.90;1.00;;;;;;5039878;28;20503;-66
2023/12/29 11:09:46;;;;;;;42.65;24.30;;;15.90;6.30;;;;;;5038636;28;20037;-66
2023/12/29 11:12:13;;;;;;;43.50;27.85;;;15.90;20.50;;;;;;5038906;28;20056;-65
2023/12/29 11:14:42;;;;;;;44.50;26.98;;;16.60;99.90;;;;;;5039998;28;20052;-65
2023/12/29 11:17:10;;;;;;;41.10;25.15;;;16.70;99.90;;;;;;5037932;28;20601;-67
2023/12/29 11:19:36;;;;;;;42.15;27.52;;;16.80;99.90;;;;;;5038429;28;20056;-66
2023/12/29 11:22:03;;;;;;;43.33;27.60;;;16.40;99.90;;;;;;5038659;28;20118;-66
2023/12/29 11:24:29;;;;;;;41.90;27.30;;;16.30;1.00;;;;;;5029760;28;20038;-65
2023/12/29 11:26:54;;;;;;;39.13;26.52;;;16.80;1.00;;;;;;5037228;28;20041;-67
2023/12/29 11:29:20;;;;;;;43.05;27.40;;;16.90;1.00;;;;;;5035475;28;20037;-67
2023/12/29 11:31:48;;;;;;;47.60;26.98;;;16.70;1.00;;;;;;5036023;28;20080;-66
2023/12/29 11:34:32;;;;;;;42.47;27.13;;;16.70;99.90;;;;;;5037130;28;20041;-67
2023/12/29 11:37:15;;;;;;;43.35;28.15;;;16.80;99.90;;;;;;5031371;28;20048;-66
2023/12/29 11:39:52;;;;;;;40.03;27.75;;;16.20;1.00;;;;;;5043070;28;20051;-66
2023/12/29 11:42:27;;;;;;;44.85;27.60;;;16.40;99.90;;;;;;5038992;28;20129;-67
2023/12/29 11:44:52;;;;;;;41.40;27.65;;;17.10;1.00;;;;;;5038058;28;20077;-67
2023/12/29 11:47:53;;;;;;;40.08;25.45;;;16.50;99.90;;;;;;5044361;28;20072;-66
2023/12/29 11:50:30;;;;;;;46.92;25.70;;;16.30;67.00;;;;;;5038406;28;20360;-67
2023/12/29 11:52:56;;;;;;;43.75;25.45;;;17.10;49.60;;;;;;5035919;28;20052;-65
2023/12/29 11:55:27;;;;;;;43.17;25.63;;;16.50;1.00;;;;;;5044583;28;20033;-66
2023/12/29 11:57:53;;;;;;;47.45;29.25;;;16.50;1.00;;;;;;5037222;28;20126;-65
2023/12/29 12:00:18;;;;;;;44.38;27.17;;;16.20;99.90;;;;;;5041692;28;20343;-66
2023/12/29 12:02:44;;;;;;;43.58;28.30;;;16.20;99.90;;;;;;5038214;28;20075;-66
2023/12/29 12:05:10;;;;;;;41.90;27.85;;;16.70;63.40;;;;;;5045942;28;20049;-66
2023/12/29 12:07:36;;;;;;;43.78;28.92;;;16.60;99.90;;;;;;5039411;28;20110;-66
2023/12/29 12:10:24;;;;;;;49.47;30.45;;;16.20;99.90;;;;;;5043197;28;20040;-65
2023/12/29 12:12:54;;;;;;;41.42;27.48;;;15.80;99.90;;;;;;5035324;28;20056;-66
2023/12/29 12:15:32;;;;;;;45.83;29.52;;;16.40;99.90;;;;;;5044955;28;20055;-66
2023/12/29 12:18:09;;;;;;;53.13;31.30;;;16.50;99.90;;;;;;5035339;28;20044;-66
2023/12/29 12:20:35;;;;;;;44.47;29.10;;;15.80;99.90;;;;;;5038598;28;20052;-70
2023/12/29 12:23:19;;;;;;;49.10;28.95;;;15.80;1.00;;;;;;5036308;28;20502;-70
2023/12/29 12:25:46;;;;;;;44.17;29.48;;;16.40;99.90;;;;;;5040023;28;20120;-71
2023/12/29 12:28:14;;;;;;;52.83;30.08;;;15.70;99.90;;;;;;5022049;28;20400;-70